Time,TemperatureF,DewpointF,PressureIn,WindDirection,WindDirectionDegrees,WindSpeedMPH,WindSpeedGustMPH,Humidity,HourlyPrecipIn,Conditions,Clouds,dailyrainin,SoftwareType,DateUTC
2013-03-24 00:02:00,31.0,24.0,-100.00,NNE,25,1.0,7.0,74,-99.99,,,-99.99,,2013-03-24 05:02:00,
2013-03-24 00:23:00,32.0,24.0,-100.00,North,5,1.0,7.0,72,-99.99,,,-99.99,,2013-03-24 05:23:00,
2013-03-24 00:32:00,32.0,24.0,-100.00,North,5,1.0,7.0,72,-99.99,,,-99.99,,2013-03-24 05:32:00,
2013-03-24 00:43:00,32.0,24.0,-100.00,North,5,1.0,7.0,72,-99.99,,,-99.99,,2013-03-24 05:43:00,
2013-03-24 00:52:00,32.0,24.0,-100.00,North,5,1.0,7.0,72,-99.99,,,-99.99,,2013-03-24 05:52:00,
2013-03-24 01:02:00,32.0,24.0,-100.00,North,5,1.0,7.0,72,-99.99,,,-99.99,,2013-03-24 06:02:00,
2013-03-24 01:22:00,31.0,23.0,-100.00,NE,40,1.0,7.0,73,-99.99,,,-99.99,,2013-03-24 06:22:00,
2013-03-24 01:32:00,31.0,23.0,-100.00,NE,40,1.0,7.0,73,-99.99,,,-99.99,,2013-03-24 06:32:00,
2013-03-24 01:42:00,31.0,23.0,-100.00,NE,40,1.0,7.0,73,-99.99,,,-99.99,,2013-03-24 06:42:00,
2013-03-24 01:52:00,31.0,23.0,-100.00,NE,40,1.0,7.0,73,-99.99,,,-99.99,,2013-03-24 06:52:00,
2013-03-24 02:02:00,31.0,23.0,-100.00,NE,40,1.0,7.0,73,-99.99,,,-99.99,,2013-03-24 07:02:00,
2013-03-24 02:03:00,30.0,23.0,-100.00,NE,35,2.0,7.0,74,-99.99,,,-99.99,,2013-03-24 07:03:00,
2013-03-24 02:22:00,30.0,23.0,-100.00,NE,35,2.0,7.0,74,-99.99,,,-99.99,,2013-03-24 07:22:00,
2013-03-24 02:32:00,30.0,23.0,-100.00,NE,35,2.0,7.0,74,-99.99,,,-99.99,,2013-03-24 07:32:00,
2013-03-24 02:42:00,30.0,23.0,-100.00,NE,35,2.0,7.0,74,-99.99,,,-99.99,,2013-03-24 07:42:00,
2013-03-24 02:52:00,30.0,23.0,-100.00,NE,35,2.0,7.0,74,-99.99,,,-99.99,,2013-03-24 07:52:00,
2013-03-24 03:22:00,30.0,23.0,-100.00,NE,50,1.0,3.0,76,-99.99,,,-99.99,,2013-03-24 08:22:00,
2013-03-24 03:32:00,30.0,23.0,-100.00,NE,50,1.0,3.0,76,-99.99,,,-99.99,,2013-03-24 08:32:00,
2013-03-24 03:42:00,30.0,23.0,-100.00,NE,50,1.0,3.0,76,-99.99,,,-99.99,,2013-03-24 08:42:00,
2013-03-24 03:52:00,30.0,23.0,-100.00,NE,50,1.0,3.0,76,-99.99,,,-99.99,,2013-03-24 08:52:00,
2013-03-24 04:02:00,30.0,23.0,-100.00,NE,50,1.0,3.0,76,-99.99,,,-99.99,,2013-03-24 09:02:00,
2013-03-24 04:03:00,28.0,22.0,-100.00,NNE,15,1.0,3.0,78,-99.99,,,-99.99,,2013-03-24 09:03:00,
2013-03-24 04:22:00,28.0,22.0,-100.00,NNE,15,1.0,3.0,78,-99.99,,,-99.99,,2013-03-24 09:22:00,
2013-03-24 04:33:00,28.0,22.0,-100.00,NNE,15,1.0,3.0,78,-99.99,,,-99.99,,2013-03-24 09:33:00,
2013-03-24 04:43:00,28.0,22.0,-100.00,NNE,15,1.0,3.0,78,-99.99,,,-99.99,,2013-03-24 09:43:00,
2013-03-24 04:52:00,28.0,22.0,-100.00,NNE,15,1.0,3.0,78,-99.99,,,-99.99,,2013-03-24 09:52:00,
2013-03-24 05:03:00,27.0,22.0,-100.00,NNE,20,0.0,1.0,81,-99.99,,,-99.99,,2013-03-24 10:03:00,
2013-03-24 05:23:00,27.0,22.0,-100.00,NNE,20,0.0,1.0,81,-99.99,,,-99.99,,2013-03-24 10:23:00,
2013-03-24 05:33:00,27.0,22.0,-100.00,NNE,20,0.0,1.0,81,-99.99,,,-99.99,,2013-03-24 10:33:00,
2013-03-24 05:42:00,27.0,22.0,-100.00,NNE,20,0.0,1.0,81,-99.99,,,-99.99,,2013-03-24 10:42:00,
2013-03-24 05:52:00,27.0,22.0,-100.00,NNE,20,0.0,1.0,81,-99.99,,,-99.99,,2013-03-24 10:52:00,
2013-03-24 06:22:00,26.0,22.0,-100.00,NNE,20,2.0,4.0,86,-99.99,,,-99.99,,2013-03-24 11:22:00,
2013-03-24 06:33:00,26.0,22.0,-100.00,NNE,20,2.0,4.0,86,-99.99,,,-99.99,,2013-03-24 11:33:00,
2013-03-24 06:42:00,26.0,22.0,-100.00,NNE,20,2.0,4.0,86,-99.99,,,-99.99,,2013-03-24 11:42:00,
2013-03-24 06:52:00,26.0,22.0,-100.00,NNE,20,2.0,4.0,86,-99.99,,,-99.99,,2013-03-24 11:52:00,
2013-03-24 07:02:00,26.0,22.0,-100.00,NNE,20,2.0,4.0,86,-99.99,,,-99.99,,2013-03-24 12:02:00,
2013-03-24 07:23:00,26.0,22.0,-100.00,NNE,25,0.0,3.0,86,-99.99,,,-99.99,,2013-03-24 12:23:00,
2013-03-24 07:32:00,26.0,22.0,-100.00,NNE,25,0.0,3.0,86,-99.99,,,-99.99,,2013-03-24 12:32:00,
2013-03-24 07:42:00,26.0,22.0,-100.00,NNE,25,0.0,3.0,86,-99.99,,,-99.99,,2013-03-24 12:42:00,
2013-03-24 07:52:00,26.0,22.0,-100.00,NNE,25,0.0,3.0,86,-99.99,,,-99.99,,2013-03-24 12:52:00,
2013-03-24 08:02:00,26.0,22.0,-100.00,NNE,25,0.0,3.0,86,-99.99,,,-99.99,,2013-03-24 13:02:00,
2013-03-24 08:23:00,28.0,23.0,-100.00,NNW,345,0.0,2.0,84,-99.99,,,-99.99,,2013-03-24 13:23:00,
2013-03-24 08:32:00,28.0,23.0,-100.00,NNW,345,0.0,2.0,84,-99.99,,,-99.99,,2013-03-24 13:32:00,
2013-03-24 08:43:00,28.0,23.0,-100.00,NNW,345,0.0,2.0,84,-99.99,,,-99.99,,2013-03-24 13:43:00,
2013-03-24 08:52:00,28.0,23.0,-100.00,NNW,345,0.0,2.0,84,-99.99,,,-99.99,,2013-03-24 13:52:00,
2013-03-24 09:02:00,28.0,23.0,-100.00,NNW,345,0.0,2.0,84,-99.99,,,-99.99,,2013-03-24 14:02:00,
2013-03-24 09:22:00,29.0,23.0,-100.00,NNE,30,2.0,4.0,80,-99.99,,,-99.99,,2013-03-24 14:22:00,
2013-03-24 09:33:00,29.0,23.0,-100.00,NNE,30,2.0,4.0,80,-99.99,,,-99.99,,2013-03-24 14:33:00,
2013-03-24 09:42:00,29.0,23.0,-100.00,NNE,30,2.0,4.0,80,-99.99,,,-99.99,,2013-03-24 14:42:00,
2013-03-24 09:52:00,29.0,23.0,-100.00,NNE,30,2.0,4.0,80,-99.99,,,-99.99,,2013-03-24 14:52:00,
2013-03-24 10:02:00,29.0,23.0,-100.00,NNE,30,2.0,4.0,80,-99.99,,,-99.99,,2013-03-24 15:02:00,
2013-03-24 10:03:00,32.0,25.0,-100.00,North,10,2.0,4.0,75,-99.99,,,-99.99,,2013-03-24 15:03:00,
2013-03-24 10:22:00,32.0,25.0,-100.00,North,10,2.0,4.0,75,-99.99,,,-99.99,,2013-03-24 15:22:00,
2013-03-24 10:33:00,32.0,25.0,-100.00,North,10,2.0,4.0,75,-99.99,,,-99.99,,2013-03-24 15:33:00,
2013-03-24 10:43:00,32.0,25.0,-100.00,North,10,2.0,4.0,75,-99.99,,,-99.99,,2013-03-24 15:43:00,
2013-03-24 10:53:00,32.0,25.0,-100.00,North,10,2.0,4.0,75,-99.99,,,-99.99,,2013-03-24 15:53:00,
2013-03-24 11:23:00,32.0,25.0,-100.00,NE,45,4.0,8.0,73,-99.99,,,-99.99,,2013-03-24 16:23:00,
2013-03-24 11:33:00,32.0,25.0,-100.00,NE,45,4.0,8.0,73,-99.99,,,-99.99,,2013-03-24 16:33:00,
2013-03-24 11:43:00,32.0,25.0,-100.00,NE,45,4.0,8.0,73,-99.99,,,-99.99,,2013-03-24 16:43:00,
2013-03-24 11:52:00,32.0,25.0,-100.00,NE,45,4.0,8.0,73,-99.99,,,-99.99,,2013-03-24 16:52:00,
2013-03-24 12:02:00,32.0,25.0,-100.00,NE,45,4.0,8.0,73,-99.99,,,-99.99,,2013-03-24 17:02:00,
2013-03-24 12:03:00,32.0,24.0,-100.00,NE,40,6.0,12.0,73,-99.99,,,-99.99,,2013-03-24 17:03:00,
2013-03-24 12:23:00,32.0,24.0,-100.00,NE,40,6.0,12.0,73,-99.99,,,-99.99,,2013-03-24 17:23:00,
2013-03-24 12:33:00,32.0,24.0,-100.00,NE,40,6.0,12.0,73,-99.99,,,-99.99,,2013-03-24 17:33:00,
2013-03-24 12:43:00,32.0,24.0,-100.00,NE,40,6.0,12.0,73,-99.99,,,-99.99,,2013-03-24 17:43:00,
2013-03-24 12:53:00,32.0,24.0,-100.00,NE,40,6.0,12.0,73,-99.99,,,-99.99,,2013-03-24 17:53:00,
2013-03-24 13:22:00,32.0,24.0,-100.00,NE,40,6.0,11.0,71,-99.99,,,-99.99,,2013-03-24 18:22:00,
2013-03-24 13:33:00,32.0,24.0,-100.00,NE,40,6.0,11.0,71,-99.99,,,-99.99,,2013-03-24 18:33:00,
2013-03-24 13:43:00,32.0,24.0,-100.00,NE,40,6.0,11.0,71,-99.99,,,-99.99,,2013-03-24 18:43:00,
2013-03-24 13:52:00,32.0,24.0,-100.00,NE,40,6.0,11.0,71,-99.99,,,-99.99,,2013-03-24 18:52:00,
2013-03-24 14:02:00,32.0,24.0,-100.00,NE,40,6.0,11.0,71,-99.99,,,-99.99,,2013-03-24 19:02:00,
2013-03-24 14:23:00,34.0,23.0,-100.00,NE,35,6.0,14.0,65,-99.99,,,-99.99,,2013-03-24 19:23:00,
2013-03-24 14:32:00,34.0,23.0,-100.00,NE,35,6.0,14.0,65,-99.99,,,-99.99,,2013-03-24 19:32:00,
2013-03-24 14:43:00,34.0,23.0,-100.00,NE,35,6.0,14.0,65,-99.99,,,-99.99,,2013-03-24 19:43:00,
2013-03-24 14:53:00,34.0,23.0,-100.00,NE,35,6.0,14.0,65,-99.99,,,-99.99,,2013-03-24 19:53:00,
2013-03-24 15:02:00,34.0,23.0,-100.00,NE,35,6.0,14.0,65,-99.99,,,-99.99,,2013-03-24 20:02:00,
2013-03-24 15:22:00,34.0,23.0,-100.00,NE,35,6.0,9.0,62,-99.99,,,-99.99,,2013-03-24 20:22:00,
2013-03-24 15:32:00,34.0,23.0,-100.00,NE,35,6.0,9.0,62,-99.99,,,-99.99,,2013-03-24 20:32:00,
2013-03-24 15:43:00,34.0,23.0,-100.00,NE,35,6.0,9.0,62,-99.99,,,-99.99,,2013-03-24 20:43:00,
2013-03-24 15:53:00,34.0,23.0,-100.00,NE,35,6.0,9.0,62,-99.99,,,-99.99,,2013-03-24 20:53:00,
2013-03-24 16:02:00,34.0,23.0,-100.00,NE,35,6.0,9.0,62,-99.99,,,-99.99,,2013-03-24 21:02:00,
2013-03-24 16:23:00,34.0,22.0,-100.00,NNE,15,5.0,14.0,63,-99.99,,,-99.99,,2013-03-24 21:23:00,
2013-03-24 16:33:00,34.0,22.0,-100.00,NNE,15,5.0,14.0,63,-99.99,,,-99.99,,2013-03-24 21:33:00,
2013-03-24 16:43:00,34.0,22.0,-100.00,NNE,15,5.0,14.0,63,-99.99,,,-99.99,,2013-03-24 21:43:00,
2013-03-24 16:53:00,34.0,22.0,-100.00,NNE,15,5.0,14.0,63,-99.99,,,-99.99,,2013-03-24 21:53:00,
2013-03-24 17:02:00,34.0,22.0,-100.00,NNE,15,5.0,14.0,63,-99.99,,,-99.99,,2013-03-24 22:02:00,
2013-03-24 17:23:00,33.0,24.0,-100.00,North,0,4.0,13.0,68,-99.99,,,-99.99,,2013-03-24 22:23:00,
2013-03-24 17:33:00,33.0,24.0,-100.00,North,0,4.0,13.0,68,-99.99,,,-99.99,,2013-03-24 22:33:00,
2013-03-24 17:43:00,33.0,24.0,-100.00,North,0,4.0,13.0,68,-99.99,,,-99.99,,2013-03-24 22:43:00,
2013-03-24 17:52:00,33.0,24.0,-100.00,North,0,4.0,13.0,68,-99.99,,,-99.99,,2013-03-24 22:52:00,
2013-03-24 18:02:00,33.0,24.0,-100.00,North,0,4.0,13.0,68,-99.99,,,-99.99,,2013-03-24 23:02:00,
2013-03-24 18:23:00,33.0,23.0,-100.00,NNE,25,4.0,12.0,67,-99.99,,,-99.99,,2013-03-24 23:23:00,
2013-03-24 18:32:00,33.0,23.0,-100.00,NNE,25,4.0,12.0,67,-99.99,,,-99.99,,2013-03-24 23:32:00,
2013-03-24 18:42:00,33.0,23.0,-100.00,NNE,25,4.0,12.0,67,-99.99,,,-99.99,,2013-03-24 23:42:00,
2013-03-24 18:53:00,33.0,23.0,-100.00,NNE,25,4.0,12.0,67,-99.99,,,-99.99,,2013-03-24 23:53:00,
2013-03-24 19:02:00,33.0,23.0,-100.00,NNE,25,4.0,12.0,67,-99.99,,,-99.99,,2013-03-25 00:02:00,
2013-03-24 19:23:00,32.0,23.0,-100.00,North,0,2.0,11.0,68,-99.99,,,-99.99,,2013-03-25 00:23:00,
2013-03-24 19:33:00,32.0,23.0,-100.00,North,0,2.0,11.0,68,-99.99,,,-99.99,,2013-03-25 00:33:00,
2013-03-24 19:43:00,32.0,23.0,-100.00,North,0,2.0,11.0,68,-99.99,,,-99.99,,2013-03-25 00:43:00,
2013-03-24 19:53:00,32.0,23.0,-100.00,North,0,2.0,11.0,68,-99.99,,,-99.99,,2013-03-25 00:53:00,
2013-03-24 20:02:00,32.0,23.0,-100.00,North,0,2.0,11.0,68,-99.99,,,-99.99,,2013-03-25 01:02:00,
2013-03-24 20:22:00,32.0,25.0,-100.00,NNE,25,2.0,12.0,75,-99.99,,,-99.99,,2013-03-25 01:22:00,
2013-03-24 20:32:00,32.0,25.0,-100.00,NNE,25,2.0,12.0,75,-99.99,,,-99.99,,2013-03-25 01:32:00,
2013-03-24 20:42:00,32.0,25.0,-100.00,NNE,25,2.0,12.0,75,-99.99,,,-99.99,,2013-03-25 01:42:00,
2013-03-24 20:52:00,32.0,25.0,-100.00,NNE,25,2.0,12.0,75,-99.99,,,-99.99,,2013-03-25 01:52:00,
2013-03-24 21:02:00,32.0,25.0,-100.00,NNE,25,2.0,12.0,75,-99.99,,,-99.99,,2013-03-25 02:02:00,
2013-03-24 21:23:00,31.0,25.0,-100.00,NNE,15,5.0,14.0,80,-99.99,,,-99.99,,2013-03-25 02:23:00,
2013-03-24 21:33:00,31.0,25.0,-100.00,NNE,15,5.0,14.0,80,-99.99,,,-99.99,,2013-03-25 02:33:00,
2013-03-24 21:43:00,31.0,25.0,-100.00,NNE,15,5.0,14.0,80,-99.99,,,-99.99,,2013-03-25 02:43:00,
2013-03-24 21:52:00,31.0,25.0,-100.00,NNE,15,5.0,14.0,80,-99.99,,,-99.99,,2013-03-25 02:52:00,
2013-03-24 22:02:00,31.0,25.0,-100.00,NNE,15,5.0,14.0,80,-99.99,,,-99.99,,2013-03-25 03:02:00,
2013-03-24 22:23:00,29.0,24.0,-100.00,NNE,20,6.0,13.0,82,-99.99,,,-99.99,,2013-03-25 03:23:00,
2013-03-24 22:34:00,29.0,24.0,-100.00,NNE,20,6.0,13.0,82,-99.99,,,-99.99,,2013-03-25 03:34:00,
2013-03-24 22:43:00,29.0,24.0,-100.00,NNE,20,6.0,13.0,82,-99.99,,,-99.99,,2013-03-25 03:43:00,
2013-03-24 22:53:00,29.0,24.0,-100.00,NNE,20,6.0,13.0,82,-99.99,,,-99.99,,2013-03-25 03:53:00,
2013-03-24 23:02:00,29.0,24.0,-100.00,NNE,20,6.0,13.0,82,-99.99,,,-99.99,,2013-03-25 04:02:00,
2013-03-24 23:03:00,27.0,21.0,-100.00,NNE,25,3.0,12.0,77,-99.99,,,-99.99,,2013-03-25 04:03:00,
2013-03-24 23:23:00,27.0,21.0,-100.00,NNE,25,3.0,12.0,77,-99.99,,,-99.99,,2013-03-25 04:23:00,
2013-03-24 23:33:00,27.0,21.0,-100.00,NNE,25,3.0,12.0,77,-99.99,,,-99.99,,2013-03-25 04:33:00,
2013-03-24 23:43:00,27.0,21.0,-100.00,NNE,25,3.0,12.0,77,-99.99,,,-99.99,,2013-03-25 04:43:00,
2013-03-24 23:52:00,27.0,21.0,-100.00,NNE,25,3.0,12.0,77,-99.99,,,-99.99,,2013-03-25 04:52:00,